Time;durP1;ratioP1;P1;durP2;ratioP2;P2;SDS_P1;SDS_P2;PMS_P1;PMS_P2;Temp;Humidity;BMP_temperature;BMP_pressure;BME280_temperature;BME280_humidity;BME280_pressure;Samples;Min_cycle;Max_cycle;Signal;HPM_P1;HPM_P2
2024/03/30 00:01:32;;;;;;;27.25;12.10;;;;;;;8.33;100.00;91921.78;4994075;28;20506;-76
2024/03/30 00:03:58;;;;;;;21.05;10.38;;;;;;;8.51;100.00;91910.59;5017330;28;20083;-74
2024/03/30 00:06:24;;;;;;;23.17;8.98;;;;;;;8.51;100.00;91910.59;5008623;28;20041;-76
2024/03/30 00:08:49;;;;;;;22.15;12.25;;;;;;;8.47;100.00;91919.28;5002934;28;20151;-76
2024/03/30 00:11:15;;;;;;;25.95;12.48;;;;;;;8.37;100.00;91904.53;5011883;28;20085;-74
2024/03/30 00:13:41;;;;;;;22.48;11.40;;;;;;;8.44;100.00;91904.94;5010918;28;20030;-75
2024/03/30 00:16:08;;;;;;;25.45;12.15;;;;;;;8.50;100.00;91897.81;5003990;28;20048;-75
2024/03/30 00:18:34;;;;;;;27.13;10.70;;;;;;;8.60;100.00;91897.66;5001040;28;20595;-76
2024/03/30 00:20:59;;;;;;;30.52;11.20;;;;;;;8.61;100.00;91893.22;5009254;28;20038;-76
2024/03/30 00:23:25;;;;;;;31.23;11.43;;;;;;;8.57;100.00;91893.00;5011562;28;20041;-76
2024/03/30 00:25:54;;;;;;;32.78;13.32;;;;;;;8.59;100.00;91890.13;5006858;28;20456;-76
2024/03/30 00:28:20;;;;;;;27.25;13.43;;;;;;;8.47;100.00;91887.97;4984804;28;20404;-75
2024/03/30 00:30:46;;;;;;;26.65;11.55;;;;;;;8.52;100.00;91885.28;5006400;28;20042;-76
2024/03/30 00:33:13;;;;;;;28.95;13.70;;;;;;;8.50;100.00;91872.50;5002256;28;20112;-75
2024/03/30 00:35:38;;;;;;;34.08;15.57;;;;;;;8.47;100.00;91873.09;5010994;28;20046;-76
2024/03/30 00:38:04;;;;;;;25.70;14.25;;;;;;;8.39;100.00;91871.09;4993445;28;20034;-75
2024/03/30 00:40:30;;;;;;;34.65;14.77;;;;;;;8.26;100.00;91861.41;5011154;28;20064;-76
2024/03/30 00:42:55;;;;;;;31.45;15.30;;;;;;;8.34;100.00;91863.38;5011030;28;20321;-75
2024/03/30 00:45:21;;;;;;;34.65;14.27;;;;;;;8.32;100.00;91860.28;5000075;28;20049;-76
2024/03/30 00:47:47;;;;;;;53.45;16.67;;;;;;;8.32;100.00;91852.47;4993638;28;20038;-76
2024/03/30 00:50:13;;;;;;;48.65;15.93;;;;;;;8.32;100.00;91860.28;4989234;28;20381;-75
2024/03/30 00:52:38;;;;;;;64.05;10.70;;;;;;;8.36;100.00;91850.06;4977091;28;20041;-76
2024/03/30 00:55:04;;;;;;;182.65;16.90;;;;;;;8.21;100.00;91841.41;5009367;28;20049;-76
2024/03/30 00:57:30;;;;;;;303.88;16.73;;;;;;;8.18;100.00;91833.41;5010167;28;20033;-75
2024/03/30 00:59:56;;;;;;;78.07;15.63;;;;;;;8.18;100.00;91828.19;4986698;28;20038;-76
2024/03/30 01:02:21;;;;;;;444.85;23.20;;;;;;;8.11;100.00;91828.56;4974175;28;20068;-75
2024/03/30 01:04:47;;;;;;;128.75;16.95;;;;;;;8.09;100.00;91828.06;5005939;28;20518;-75
2024/03/30 01:07:13;;;;;;;71.25;17.38;;;;;;;8.01;100.00;91813.84;4980846;28;20055;-75
2024/03/30 01:09:38;;;;;;;250.05;20.08;;;;;;;8.00;100.00;91820.13;5010176;28;20111;-75
2024/03/30 01:12:04;;;;;;;105.68;15.13;;;;;;;8.04;100.00;91815.91;5010345;28;20029;-74
2024/03/30 01:14:33;;;;;;;41.00;19.33;;;;;;;8.07;100.00;91817.16;4999362;28;20045;-75
2024/03/30 01:16:59;;;;;;;35.15;17.98;;;;;;;8.09;100.00;91804.63;5000984;28;20033;-75
2024/03/30 01:19:25;;;;;;;98.65;21.73;;;;;;;8.01;100.00;91800.81;5000948;28;20050;-74
2024/03/30 01:21:51;;;;;;;62.88;16.77;;;;;;;8.13;100.00;91808.19;5010871;28;20096;-73
2024/03/30 01:24:17;;;;;;;47.70;14.85;;;;;;;8.05;100.00;91796.59;5001393;28;20514;-75
2024/03/30 01:26:55;;;;;;;38.70;16.10;;;;;;;8.08;100.00;91783.00;4983504;28;20213;-75
2024/03/30 01:29:24;;;;;;;42.60;19.45;;;;;;;8.00;100.00;91780.28;5002322;28;20084;-76
2024/03/30 01:31:50;;;;;;;62.75;19.60;;;;;;;7.96;100.00;91777.47;5008714;28;20030;-75
2024/03/30 01:34:16;;;;;;;386.30;23.90;;;;;;;7.90;100.00;91774.19;4992425;28;20089;-74
2024/03/30 01:36:42;;;;;;;190.32;21.85;;;;;;;7.99;100.00;91765.69;5005443;28;20034;-76
2024/03/30 01:39:08;;;;;;;397.45;24.08;;;;;;;8.03;100.00;91769.25;4993653;28;20046;-75
2024/03/30 01:41:35;;;;;;;315.05;23.98;;;;;;;8.03;100.00;91762.22;5001840;28;20038;-75
2024/03/30 01:44:01;;;;;;;48.50;19.75;;;;;;;7.99;100.00;91763.06;5002138;28;20034;-76
2024/03/30 01:46:28;;;;;;;42.67;20.02;;;;;;;7.91;100.00;91767.13;5008006;28;20064;-75
2024/03/30 01:48:54;;;;;;;405.55;22.17;;;;;;;8.02;100.00;91752.09;5010448;28;20038;-74
2024/03/30 01:51:20;;;;;;;536.45;28.52;;;;;;;7.92;100.00;91753.81;5006736;28;20026;-75
2024/03/30 01:53:47;;;;;;;519.75;28.25;;;;;;;7.88;100.00;91752.03;5005282;28;20068;-75
2024/03/30 01:56:12;;;;;;;119.97;20.25;;;;;;;7.80;100.00;91744.91;5009813;28;20514;-75
2024/03/30 01:58:38;;;;;;;254.15;21.70;;;;;;;7.82;100.00;91753.97;5004958;28;20042;-73
2024/03/30 02:01:04;;;;;;;450.52;27.52;;;;;;;7.79;100.00;91748.56;5001901;28;20038;-75
2024/03/30 02:03:30;;;;;;;570.92;26.70;;;;;;;7.85;100.00;91748.19;5000746;28;20235;-74
2024/03/30 02:05:57;;;;;;;320.38;24.77;;;;;;;7.93;100.00;91751.97;5009506;28;20033;-75
2024/03/30 02:08:24;;;;;;;69.97;20.23;;;;;;;7.89;100.00;91758.81;5007890;28;20542;-75
2024/03/30 02:10:50;;;;;;;334.75;24.50;;;;;;;7.84;100.00;91751.88;5004307;28;20026;-75
2024/03/30 02:13:16;;;;;;;223.52;23.52;;;;;;;7.82;100.00;91748.75;4990017;28;20041;-74
2024/03/30 02:15:42;;;;;;;360.52;22.48;;;;;;;7.81;100.00;91754.25;4998858;28;20022;-74
2024/03/30 02:18:07;;;;;;;352.77;24.60;;;;;;;7.74;100.00;91746.03;5003777;28;20188;-75
2024/03/30 02:20:33;;;;;;;273.05;24.63;;;;;;;7.68;100.00;91756.56;5006736;28;20124;-75
2024/03/30 02:22:59;;;;;;;393.42;25.77;;;;;;;7.68;100.00;91753.94;4998299;28;20037;-75
2024/03/30 02:25:24;;;;;;;850.70;35.20;;;;;;;7.72;100.00;91757.53;4995498;28;20037;-75
2024/03/30 02:27:51;;;;;;;372.08;25.17;;;;;;;7.67;100.00;91756.81;5009647;28;20045;-76
2024/03/30 02:30:29;;;;;;;515.13;29.50;;;;;;;7.77;100.00;91755.88;4992001;28;20037;-75
2024/03/30 02:32:57;;;;;;;237.52;23.40;;;;;;;7.69;100.00;91750.28;5002648;28;20489;-76
2024/03/30 02:35:23;;;;;;;55.53;20.98;;;;;;;7.81;100.00;91751.66;5001244;28;20033;-75
2024/03/30 02:37:52;;;;;;;218.25;19.73;;;;;;;7.88;100.00;91759.84;4999340;28;20034;-75
2024/03/30 02:40:18;;;;;;;198.57;23.33;;;;;;;7.86;100.00;91754.19;4991258;28;20505;-73
2024/03/30 02:42:44;;;;;;;33.28;14.10;;;;;;;7.82;100.00;91753.97;5008447;28;20439;-75
2024/03/30 02:45:12;;;;;;;48.20;16.83;;;;;;;7.86;100.00;91767.97;5004827;28;20044;-75
2024/03/30 02:47:38;;;;;;;231.90;23.63;;;;;;;7.78;100.00;91773.84;5001418;28;20041;-75
2024/03/30 02:50:04;;;;;;;235.98;24.13;;;;;;;7.81;100.00;91764.69;5009337;28;20038;-75
2024/03/30 02:52:30;;;;;;;68.55;19.85;;;;;;;7.82;100.00;91766.25;5004230;28;20083;-75
2024/03/30 02:54:56;;;;;;;98.22;21.30;;;;;;;7.87;100.00;91771.34;4989135;28;20495;-75
2024/03/30 02:57:21;;;;;;;181.00;20.02;;;;;;;7.87;100.00;91771.34;4999508;28;20160;-75
2024/03/30 02:59:47;;;;;;;73.85;21.17;;;;;;;7.72;100.00;91767.94;5005386;28;20042;-75
2024/03/30 03:02:13;;;;;;;97.53;22.00;;;;;;;7.80;100.00;91770.97;4983615;28;20695;-75
2024/03/30 03:04:38;;;;;;;52.15;21.95;;;;;;;7.84;100.00;91769.34;4996789;28;20117;-75
2024/03/30 03:07:05;;;;;;;39.20;19.10;;;;;;;7.82;100.00;91774.06;4992675;28;20059;-75
2024/03/30 03:09:31;;;;;;;45.75;20.50;;;;;;;7.72;100.00;91777.59;4999720;28;20030;-75
2024/03/30 03:11:57;;;;;;;298.20;23.73;;;;;;;7.71;100.00;91768.22;5007502;28;20044;-75
2024/03/30 03:14:23;;;;;;;453.38;28.58;;;;;;;7.83;100.00;91770.38;4998892;28;20038;-75
2024/03/30 03:16:48;;;;;;;58.13;13.75;;;;;;;7.77;100.00;91779.31;5004855;28;20072;-76
2024/03/30 03:19:14;;;;;;;31.40;14.73;;;;;;;7.75;100.00;91771.06;5005111;28;20093;-74
2024/03/30 03:21:40;;;;;;;37.83;18.58;;;;;;;7.60;100.00;91761.63;5006184;28;20104;-76
2024/03/30 03:24:06;;;;;;;44.25;21.48;;;;;;;7.63;100.00;91761.84;5007015;28;20061;-74
2024/03/30 03:26:31;;;;;;;34.08;17.50;;;;;;;7.64;100.00;91768.59;4999727;28;20130;-75
2024/03/30 03:28:57;;;;;;;48.08;19.92;;;;;;;7.62;100.00;91760.28;5008660;28;20121;-76
2024/03/30 03:31:22;;;;;;;41.20;19.48;;;;;;;7.54;100.00;91747.91;5009279;28;20112;-76
2024/03/30 03:33:49;;;;;;;45.50;19.58;;;;;;;7.53;100.00;91745.59;5009183;28;20522;-75
2024/03/30 03:36:16;;;;;;;46.45;17.05;;;;;;;7.70;100.00;91743.22;5008955;28;20038;-74
2024/03/30 03:38:41;;;;;;;52.97;20.10;;;;;;;7.66;100.00;91740.44;5004734;28;20030;-76
2024/03/30 03:41:07;;;;;;;37.13;14.52;;;;;;;7.78;100.00;91741.81;5005509;28;20045;-76
2024/03/30 03:43:33;;;;;;;42.25;18.77;;;;;;;7.69;100.00;91739.09;5008930;28;20038;-75
2024/03/30 03:45:59;;;;;;;459.15;22.60;;;;;;;7.69;100.00;91747.66;5002407;28;20084;-76
2024/03/30 03:48:24;;;;;;;45.08;12.13;;;;;;;7.75;100.00;91742.38;4995587;28;20030;-75
2024/03/30 03:50:50;;;;;;;265.10;20.83;;;;;;;7.64;100.00;91752.97;5001006;28;20116;-75
2024/03/30 03:53:15;;;;;;;34.90;16.48;;;;;;;7.53;100.00;91743.00;5008983;28;20036;-76
2024/03/30 03:55:45;;;;;;;35.70;16.48;;;;;;;7.56;100.00;91752.84;5002302;28;20046;-74
2024/03/30 03:58:10;;;;;;;28.58;16.73;;;;;;;7.49;100.00;91755.81;5009479;28;20021;-75
2024/03/30 04:00:36;;;;;;;27.77;15.52;;;;;;;7.45;100.00;91749.63;5012393;28;20038;-76
2024/03/30 04:03:02;;;;;;;288.13;18.90;;;;;;;7.49;100.00;91753.19;5012315;28;20036;-75
2024/03/30 04:05:27;;;;;;;21.27;12.10;;;;;;;7.57;100.00;91755.16;5004853;28;20603;-75
2024/03/30 04:07:53;;;;;;;32.45;14.43;;;;;;;7.56;100.00;91745.78;5002615;28;20091;-74
2024/03/30 04:10:20;;;;;;;26.83;12.93;;;;;;;7.51;100.00;91740.66;5011826;28;20034;-75
2024/03/30 04:12:48;;;;;;;22.45;12.18;;;;;;;7.54;100.00;91737.50;4998624;28;20097;-74
2024/03/30 04:15:13;;;;;;;28.73;13.93;;;;;;;7.47;100.00;91740.47;5010314;28;20045;-73
2024/03/30 04:17:40;;;;;;;44.33;18.50;;;;;;;7.42;100.00;91730.13;5002770;28;20054;-75
2024/03/30 04:20:06;;;;;;;36.40;19.52;;;;;;;7.36;100.00;91730.50;5006911;28;20508;-75
2024/03/30 04:22:32;;;;;;;64.07;20.17;;;;;;;7.36;100.00;91733.09;5012137;28;20092;-76
2024/03/30 04:24:58;;;;;;;299.10;24.38;;;;;;;7.36;100.00;91726.06;5000530;28;20042;-75
2024/03/30 04:27:23;;;;;;;64.75;19.40;;;;;;;7.41;100.00;91726.00;5004450;28;20377;-76
2024/03/30 04:29:49;;;;;;;51.90;18.60;;;;;;;7.49;100.00;91727.94;5005202;28;20046;-73
2024/03/30 04:32:16;;;;;;;22.20;9.57;;;;;;;7.60;100.00;91725.94;5011511;28;20033;-75
2024/03/30 04:34:41;;;;;;;50.10;18.30;;;;;;;7.45;100.00;91718.38;5011264;28;20046;-75
2024/03/30 04:37:07;;;;;;;47.47;19.27;;;;;;;7.35;100.00;91713.34;5003338;28;20031;-75
2024/03/30 04:39:33;;;;;;;51.25;18.60;;;;;;;7.37;100.00;91721.63;5011718;28;20084;-75
2024/03/30 04:41:59;;;;;;;48.28;19.63;;;;;;;7.39;100.00;91724.72;5011621;28;20022;-75
2024/03/30 04:44:25;;;;;;;51.15;19.58;;;;;;;7.36;100.00;91730.50;5003952;28;20065;-75
2024/03/30 04:46:51;;;;;;;47.90;19.33;;;;;;;7.27;100.00;91719.94;5011643;28;20501;-74
2024/03/30 04:49:17;;;;;;;46.38;19.75;;;;;;;7.26;100.00;91721.00;5010116;28;20121;-75
2024/03/30 04:51:43;;;;;;;43.30;19.63;;;;;;;7.46;100.00;91730.34;5007024;28;20026;-75
2024/03/30 04:54:08;;;;;;;35.38;14.38;;;;;;;7.52;100.00;91734.41;4993767;28;20488;-75
2024/03/30 04:56:34;;;;;;;50.90;20.65;;;;;;;7.50;100.00;91736.53;5004018;28;20022;-74
2024/03/30 04:59:00;;;;;;;451.98;26.67;;;;;;;7.42;100.00;91726.75;5011579;28;20387;-73
2024/03/30 05:01:26;;;;;;;128.82;21.63;;;;;;;7.36;100.00;91723.44;5005037;28;20109;-75
2024/03/30 05:03:52;;;;;;;240.57;22.77;;;;;;;7.34;100.00;91730.78;5008589;28;20754;-76
2024/03/30 05:06:17;;;;;;;174.65;21.98;;;;;;;7.29;100.00;91730.84;5000568;28;20550;-75
2024/03/30 05:08:43;;;;;;;638.50;30.90;;;;;;;7.32;100.00;91729.50;4973967;28;20039;-75
2024/03/30 05:11:08;;;;;;;101.03;19.65;;;;;;;7.34;100.00;91743.00;4973751;28;20023;-75
2024/03/30 05:13:34;;;;;;;356.38;22.13;;;;;;;7.34;100.00;91732.59;5000360;28;20121;-75
2024/03/30 05:16:00;;;;;;;846.83;34.17;;;;;;;7.29;100.00;91723.84;5010783;28;20384;-74
2024/03/30 05:18:27;;;;;;;665.58;27.77;;;;;;;7.26;100.00;91728.81;5010348;28;20048;-76
2024/03/30 05:20:58;;;;;;;37.60;16.35;;;;;;;7.23;100.00;91732.00;5010629;28;20431;-75
2024/03/30 05:23:34;;;;;;;133.07;18.92;;;;;;;7.26;100.00;91728.81;4992382;28;20030;-75
2024/03/30 05:26:02;;;;;;;132.90;16.60;;;;;;;7.27;100.00;91723.34;4998018;28;20070;-77
2024/03/30 05:28:30;;;;;;;42.42;17.70;;;;;;;7.33;100.00;91726.63;5010912;28;20037;-74
2024/03/30 05:30:57;;;;;;;43.10;17.90;;;;;;;7.36;100.00;91731.25;5011102;28;20041;-75
2024/03/30 05:33:24;;;;;;;353.50;21.15;;;;;;;7.29;100.00;91738.66;5010286;28;20060;-75
2024/03/30 05:35:52;;;;;;;561.22;26.25;;;;;;;7.27;100.00;91743.38;5010669;28;20048;-75
2024/03/30 05:38:17;;;;;;;720.03;30.73;;;;;;;7.26;100.00;91728.81;4980939;28;20034;-74
2024/03/30 05:40:44;;;;;;;258.50;21.35;;;;;;;7.22;100.00;91726.00;5004447;28;20026;-74
2024/03/30 05:43:11;;;;;;;570.63;26.42;;;;;;;7.18;100.00;91738.06;5002304;28;20058;-75
2024/03/30 05:45:39;;;;;;;149.70;18.67;;;;;;;7.18;100.00;91730.25;4977255;28;20069;-74
2024/03/30 05:48:08;;;;;;;74.13;17.35;;;;;;;7.17;100.00;91731.28;5010372;28;20487;-74
2024/03/30 05:50:34;;;;;;;34.33;16.88;;;;;;;7.17;100.00;91733.91;5003912;28;20541;-75
2024/03/30 05:53:01;;;;;;;39.55;16.85;;;;;;;7.18;100.00;91740.66;5002042;28;20034;-73
2024/03/30 05:55:27;;;;;;;41.42;17.13;;;;;;;7.17;100.00;91739.09;5009432;28;20498;-77
2024/03/30 05:57:54;;;;;;;35.55;16.45;;;;;;;7.18;100.00;91730.25;4992806;28;20041;-77
2024/03/30 06:00:21;;;;;;;37.70;16.92;;;;;;;7.20;100.00;91733.31;5010052;28;20444;-75
2024/03/30 06:02:47;;;;;;;41.70;16.35;;;;;;;7.21;100.00;91728.91;5004824;28;20033;-74
2024/03/30 06:05:13;;;;;;;29.98;15.82;;;;;;;7.21;100.00;91740.09;4990759;28;20046;-74
2024/03/30 06:07:40;;;;;;;30.10;15.88;;;;;;;7.21;100.00;91742.69;4999893;28;20065;-75
2024/03/30 06:10:08;;;;;;;36.65;16.33;;;;;;;7.41;100.00;91748.66;5007635;28;20034;-74
2024/03/30 06:12:34;;;;;;;31.42;14.82;;;;;;;7.33;100.00;91744.09;5010590;28;20442;-72
2024/03/30 06:15:00;;;;;;;28.08;13.35;;;;;;;7.30;100.00;91741.00;5002472;28;20045;-74
2024/03/30 06:17:26;;;;;;;35.45;12.35;;;;;;;7.32;100.00;91734.72;5014824;28;20474;-77
2024/03/30 06:19:52;;;;;;;31.92;11.05;;;;;;;7.33;100.00;91731.06;5014856;28;20050;-75
2024/03/30 06:22:17;;;;;;;33.42;11.73;;;;;;;7.36;100.00;91735.69;5001611;28;20132;-74
2024/03/30 06:24:43;;;;;;;36.35;11.80;;;;;;;7.40;100.00;91728.88;4984412;28;20096;-76
2024/03/30 06:27:10;;;;;;;32.20;11.48;;;;;;;7.40;100.00;91736.69;5010175;28;20029;-74
2024/03/30 06:29:37;;;;;;;36.38;12.02;;;;;;;7.40;100.00;91737.44;5009694;28;20340;-75
2024/03/30 06:32:04;;;;;;;34.20;10.60;;;;;;;7.44;100.00;91743.63;5009703;28;20026;-75
2024/03/30 06:34:33;;;;;;;34.90;10.73;;;;;;;7.55;100.00;91733.84;4992125;28;20084;-75
2024/03/30 06:36:59;;;;;;;43.80;10.48;;;;;;;7.53;100.00;91737.78;5002599;28;20033;-75
2024/03/30 06:39:27;;;;;;;34.83;11.07;;;;;;;7.53;100.00;91735.97;5000421;28;20042;-76
2024/03/30 06:44:54;;;;;;;43.80;11.48;;;;;;;7.68;100.00;91750.56;4920742;29;20043;-76
2024/03/30 06:47:20;;;;;;;33.17;10.60;;;;;;;7.68;100.00;91747.97;4965032;28;20474;-76
2024/03/30 06:49:45;;;;;;;29.00;11.60;;;;;;;7.71;100.00;91748.16;5005005;28;20490;-76
2024/03/30 06:52:11;;;;;;;37.30;10.57;;;;;;;7.71;100.00;91758.56;5009736;28;20034;-76
2024/03/30 06:54:36;;;;;;;36.45;11.75;;;;;;;7.77;100.00;91751.47;5005475;28;20453;-76
2024/03/30 06:57:02;;;;;;;30.95;10.35;;;;;;;7.82;100.00;91753.22;4987801;28;20395;-75
2024/03/30 06:59:28;;;;;;;33.75;10.45;;;;;;;7.87;100.00;91755.72;4998650;28;20205;-76
2024/03/30 07:01:53;;;;;;;35.42;10.35;;;;;;;7.96;100.00;91754.00;5007517;28;20060;-76
2024/03/30 07:04:19;;;;;;;37.25;11.57;;;;;;;8.00;100.00;91747.16;4991859;28;20511;-75
2024/03/30 07:06:44;;;;;;;27.35;9.75;;;;;;;8.10;100.00;91749.56;5004517;28;20030;-75
2024/03/30 07:09:10;;;;;;;47.85;11.95;;;;;;;8.10;100.00;91749.56;4983432;28;20503;-76
2024/03/30 07:11:36;;;;;;;43.50;10.48;;;;;;;8.11;100.00;91745.91;4997475;28;20184;-75
2024/03/30 07:14:01;;;;;;;52.55;12.35;;;;;;;8.16;100.00;91746.88;4974373;28;20038;-76
2024/03/30 07:16:27;;;;;;;43.58;11.13;;;;;;;8.22;100.00;91743.09;5009215;28;20037;-75
2024/03/30 07:18:52;;;;;;;38.67;12.00;;;;;;;8.31;100.00;91741.41;4982964;28;20046;-75
2024/03/30 07:21:18;;;;;;;40.28;11.93;;;;;;;8.36;100.00;91745.75;4990680;28;20396;-76
2024/03/30 07:23:44;;;;;;;37.13;10.18;;;;;;;8.39;100.00;91745.91;5009465;28;20077;-75
2024/03/30 07:26:10;;;;;;;32.50;10.60;;;;;;;8.45;100.00;91750.00;5004190;28;20811;-75
2024/03/30 07:28:37;;;;;;;42.30;11.00;;;;;;;8.51;100.00;91748.88;4990447;28;20045;-76
2024/03/30 07:31:05;;;;;;;30.45;10.80;;;;;;;8.55;100.00;91755.03;4990239;28;20033;-76
2024/03/30 07:33:31;;;;;;;35.78;10.23;;;;;;;8.59;100.00;91759.66;5009932;28;20053;-76
2024/03/30 07:35:57;;;;;;;41.70;11.15;;;;;;;8.61;100.00;91752.31;5003445;28;20048;-76
2024/03/30 07:38:29;;;;;;;44.15;10.77;;;;;;;8.62;100.00;91759.09;4995827;28;20037;-77
2024/03/30 07:40:55;;;;;;;44.25;13.63;;;;;;;8.62;100.00;91759.84;4996024;28;20052;-75
2024/03/30 07:43:21;;;;;;;43.47;10.88;;;;;;;8.63;100.00;91758.03;5013207;28;20037;-77
2024/03/30 07:45:47;;;;;;;37.10;9.73;;;;;;;8.66;100.00;91760.06;4999047;28;20492;-76
2024/03/30 07:48:12;;;;;;;52.85;9.52;;;;;;;8.68;100.00;91752.69;4994066;28;20030;-76
2024/03/30 07:50:38;;;;;;;32.95;8.55;;;;;;;8.74;100.00;91761.97;4994747;28;20036;-76
2024/03/30 07:53:04;;;;;;;46.25;10.02;;;;;;;8.81;100.00;91761.59;4994132;28;20064;-77
2024/03/30 07:55:31;;;;;;;31.60;8.80;;;;;;;8.89;100.00;91761.69;5004662;28;20046;-77
2024/03/30 07:57:57;;;;;;;46.40;8.70;;;;;;;9.04;100.00;91757.97;5013488;28;20109;-74
2024/03/30 08:00:23;;;;;;;45.03;8.30;;;;;;;9.22;100.00;91760.72;4995870;28;20124;-78
2024/03/30 08:02:48;;;;;;;54.03;8.90;;;;;;;9.41;100.00;91758.72;4995452;28;20398;-77
2024/03/30 08:05:15;;;;;;;49.83;8.50;;;;;;;9.61;100.00;91762.69;5006857;28;20042;-77
2024/03/30 08:07:40;;;;;;;59.63;8.88;;;;;;;9.76;100.00;91751.88;4998382;28;20049;-76
2024/03/30 08:10:06;;;;;;;46.45;8.10;;;;;;;9.97;100.00;91751.38;5010486;28;20038;-76
2024/03/30 08:12:32;;;;;;;69.63;8.60;;;;;;;10.12;100.00;91748.41;4998009;28;20760;-76
2024/03/30 08:14:58;;;;;;;44.10;7.50;;;;;;;10.32;100.00;91756.84;5005237;28;20052;-75
2024/03/30 08:17:23;;;;;;;52.50;7.38;;;;;;;10.47;100.00;91745.16;4996486;28;20077;-76
2024/03/30 08:19:49;;;;;;;41.08;7.03;;;;;;;10.61;100.00;91744.00;4967178;28;20085;-76
2024/03/30 08:22:16;;;;;;;51.17;7.65;;;;;;;10.70;100.00;91740.66;4964721;28;20089;-79
2024/03/30 08:24:42;;;;;;;48.35;7.47;;;;;;;10.66;100.00;91734.47;4968958;28;20038;-77
2024/03/30 08:27:07;;;;;;;57.47;8.30;;;;;;;10.58;100.00;91738.59;4966932;28;20042;-79
2024/03/30 08:29:33;;;;;;;44.47;7.03;;;;;;;10.54;100.00;91735.06;4967461;28;20150;-76
2024/03/30 08:31:59;;;;;;;72.22;7.60;;;;;;;10.49;100.00;91743.81;4965482;28;20030;-76
2024/03/30 08:34:25;;;;;;;50.40;8.63;;;;;;;10.49;100.00;91743.03;4968982;28;20436;-75
2024/03/30 08:36:51;;;;;;;54.60;7.80;;;;;;;10.42;100.00;91738.22;4962135;28;20038;-75
2024/03/30 08:39:16;;;;;;;52.22;7.32;;;;;;;10.35;100.00;91743.91;4970241;28;20502;-74
2024/03/30 08:41:42;;;;;;;63.13;8.82;;;;;;;10.26;100.00;91734.47;4963348;28;20031;-74
2024/03/30 08:44:08;;;;;;;52.65;7.25;;;;;;;10.23;100.00;91740.31;4960100;28;20109;-75
2024/03/30 08:46:33;;;;;;;58.90;7.32;;;;;;;10.26;100.00;91734.47;4962174;28;20054;-75
2024/03/30 08:49:06;;;;;;;57.58;7.05;;;;;;;10.38;100.00;91739.91;4967209;28;20181;-74
2024/03/30 08:51:32;;;;;;;62.80;7.80;;;;;;;10.37;100.00;91730.53;4967862;28;20394;-75
2024/03/30 08:54:16;;;;;;;61.35;6.93;;;;;;;10.47;100.00;91735.50;4968002;28;20031;-74
2024/03/30 08:56:42;;;;;;;53.33;7.38;;;;;;;10.57;100.00;91734.44;4965650;28;20043;-75
2024/03/30 08:59:07;;;;;;;67.38;7.57;;;;;;;10.70;100.00;91727.56;4965658;28;20108;-75
2024/03/30 09:01:33;;;;;;;63.40;8.38;;;;;;;10.81;100.00;91728.81;4969513;28;20595;-75
2024/03/30 09:03:59;;;;;;;54.65;6.97;;;;;;;10.88;100.00;91723.91;4964248;28;20027;-75
2024/03/30 09:06:24;;;;;;;75.30;8.52;;;;;;;10.92;100.00;91718.78;4966691;28;20587;-74
2024/03/30 09:08:50;;;;;;;52.75;7.50;;;;;;;10.97;100.00;91716.06;4970167;28;20389;-75
2024/03/30 09:11:15;;;;;;;61.13;7.40;;;;;;;11.02;100.00;91710.66;4949776;28;20155;-75
2024/03/30 09:13:41;;;;;;;64.22;7.10;;;;;;;11.00;100.00;91716.19;4965002;28;20026;-75
2024/03/30 09:16:08;;;;;;;77.28;8.85;;;;;;;10.99;100.00;91713.91;4967138;28;20035;-75
2024/03/30 09:18:33;;;;;;;61.13;7.65;;;;;;;10.96;100.00;91715.25;4970160;28;20050;-75
2024/03/30 09:21:02;;;;;;;63.78;7.88;;;;;;;10.97;100.00;91716.81;4988137;28;20034;-75
2024/03/30 09:23:28;;;;;;;58.45;6.72;;;;;;;11.00;100.00;91710.97;4957629;28;20124;-74
2024/03/30 09:25:54;;;;;;;65.28;7.53;;;;;;;11.07;100.00;91717.59;5000037;28;20083;-75
2024/03/30 09:28:19;;;;;;;63.83;7.18;;;;;;;11.04;100.00;91706.66;4991740;28;20056;-75
2024/03/30 09:30:46;;;;;;;65.03;6.95;;;;;;;11.07;100.00;91712.34;5008295;28;20044;-75
2024/03/30 09:33:12;;;;;;;64.03;6.85;;;;;;;11.13;100.00;91705.91;5008655;28;20144;-75
2024/03/30 09:35:38;;;;;;;63.40;8.25;;;;;;;11.28;100.00;91705.44;5004912;28;20566;-75
2024/03/30 09:38:04;;;;;;;59.67;7.13;;;;;;;11.37;100.00;91708.81;4998307;28;20176;-75
2024/03/30 09:40:30;;;;;;;70.80;8.32;;;;;;;11.42;100.00;91700.03;5005463;28;20046;-75
2024/03/30 09:42:57;;;;;;;74.60;7.90;;;;;;;11.50;100.00;91699.25;5007493;28;20026;-75
2024/03/30 09:45:27;;;;;;;54.50;8.00;;;;;;;11.57;100.00;91701.38;4990295;28;20530;-75
2024/03/30 09:47:56;;;;;;;73.25;7.00;;;;;;;11.64;100.00;91701.69;5003857;28;20392;-75
2024/03/30 09:50:23;;;;;;;68.13;6.95;;;;;;;11.74;100.00;91690.88;5006729;28;20029;-74
2024/03/30 09:52:50;;;;;;;61.65;7.57;;;;;;;11.91;100.00;91690.09;4990098;28;20057;-74
2024/03/30 09:55:17;;;;;;;62.70;7.78;;;;;;;12.06;100.00;91696.69;5006504;28;20048;-75
2024/03/30 09:57:49;;;;;;;68.07;7.60;;;;;;;12.09;100.00;91690.81;5004360;28;20033;-74
2024/03/30 10:00:17;;;;;;;70.63;12.27;;;;;;;12.12;100.00;91687.56;5007111;28;20099;-75
2024/03/30 10:02:44;;;;;;;72.05;8.77;;;;;;;12.14;100.00;91690.66;4979883;28;20099;-75
2024/03/30 10:05:12;;;;;;;84.93;7.32;;;;;;;12.24;100.00;91686.91;5008307;28;20037;-75
2024/03/30 10:07:53;;;;;;;63.53;7.43;;;;;;;12.26;100.00;91679.47;4987309;28;20038;-75
2024/03/30 10:10:21;;;;;;;74.07;8.47;;;;;;;12.38;100.00;91679.56;4998574;28;20029;-75
2024/03/30 10:13:11;;;;;;;66.90;7.97;;;;;;;12.46;100.00;91667.50;4984418;28;20038;-75
2024/03/30 10:15:46;;;;;;;66.65;8.07;;;;;;;12.67;100.00;91670.91;4994321;28;20439;-75
2024/03/30 10:18:15;;;;;;;73.50;8.60;;;;;;;12.91;100.00;91661.69;4999712;28;20054;-75
2024/03/30 10:20:41;;;;;;;66.80;7.28;;;;;;;13.13;100.00;91663.22;5004191;28;20042;-75
2024/03/30 10:23:07;;;;;;;81.80;7.32;;;;;;;13.31;100.00;91658.63;5006013;28;20056;-75
2024/03/30 10:25:34;;;;;;;78.53;8.13;;;;;;;13.52;100.00;91654.09;4982656;28;20038;-75
2024/03/30 10:28:01;;;;;;;79.60;8.70;;;;;;;13.76;100.00;91647.38;5000226;28;20030;-75
2024/03/30 10:30:27;;;;;;;68.75;9.52;;;;;;;13.88;100.00;91654.50;5002055;28;20033;-75
2024/03/30 10:32:59;;;;;;;55.80;8.98;;;;;;;13.87;100.00;91637.97;5006125;28;20065;-75
2024/03/30 10:35:26;;;;;;;70.72;10.98;;;;;;;13.95;100.00;91637.09;4994300;28;20034;-75
2024/03/30 10:37:54;;;;;;;69.80;9.15;;;;;;;13.95;100.00;91633.69;5002466;28;20121;-75
2024/03/30 10:40:20;;;;;;;71.35;8.50;;;;;;;13.87;100.00;91624.81;4983161;28;20569;-75
2024/03/30 10:42:46;;;;;;;74.55;7.78;;;;;;;13.84;100.00;91625.44;5007851;28;20029;-75
2024/03/30 10:45:11;;;;;;;78.80;8.63;;;;;;;13.95;100.00;91623.94;5007755;28;20758;-75
2024/03/30 10:47:41;;;;;;;75.65;8.57;;;;;;;13.61;100.00;91629.56;4996058;28;20533;-75
2024/03/30 10:50:07;;;;;;;82.75;9.25;;;;;;;13.63;100.00;91622.91;5006816;28;20037;-75
2024/03/30 10:52:33;;;;;;;42.90;12.20;;;;;;;13.12;100.00;91630.91;4989646;28;20753;-75
2024/03/30 10:54:59;;;;;;;57.17;10.13;;;;;;;12.91;100.00;91624.91;4984477;28;20069;-75
2024/03/30 10:57:26;;;;;;;34.25;11.82;;;;;;;12.80;100.00;91627.13;4990038;28;20034;-74
2024/03/30 10:59:55;;;;;;;41.35;11.80;;;;;;;12.78;100.00;91618.81;5007772;28;20042;-75
2024/03/30 11:02:23;;;;;;;51.13;9.07;;;;;;;12.75;100.00;91616.06;5005966;28;20022;-75
2024/03/30 11:04:53;;;;;;;52.30;9.65;;;;;;;12.78;100.00;91613.56;5007251;28;20033;-75
2024/03/30 11:07:21;;;;;;;55.60;11.15;;;;;;;12.93;100.00;91601.72;5009789;28;20368;-74
2024/03/30 11:09:47;;;;;;;48.22;11.60;;;;;;;12.99;100.00;91600.44;5007133;28;20032;-75
2024/03/30 11:12:15;;;;;;;62.47;10.80;;;;;;;13.11;100.00;91603.09;5007229;28;20120;-75
2024/03/30 11:14:42;;;;;;;45.47;10.52;;;;;;;13.12;100.00;91603.84;5004499;28;20394;-74
2024/03/30 11:17:22;;;;;;;45.90;12.52;;;;;;;13.09;100.00;91592.13;5003751;28;20270;-74